createdAt,value
2023-04-01T00:01:29.357Z,8.49
2023-04-01T00:03:57.737Z,8.45
2023-04-01T00:06:27.344Z,8.52
2023-04-01T00:08:56.120Z,8.49
2023-04-01T00:11:24.628Z,8.44
2023-04-01T00:13:52.816Z,8.50
2023-04-01T00:16:22.585Z,8.50
2023-04-01T00:18:51.722Z,8.47
2023-04-01T00:21:20.229Z,8.42
2023-04-01T00:23:50.456Z,8.43
2023-04-01T00:26:21.314Z,8.37
2023-04-01T00:28:49.928Z,8.38
2023-04-01T00:31:18.357Z,8.35
2023-04-01T00:33:46.733Z,8.34
2023-04-01T00:36:15.924Z,8.31
2023-04-01T00:38:44.489Z,8.35
2023-04-01T00:41:15.705Z,8.33
2023-04-01T00:43:44.175Z,8.38
2023-04-01T00:46:12.540Z,8.34
2023-04-01T00:48:42.664Z,8.33
2023-04-01T00:51:13.482Z,8.36
2023-04-01T00:53:43.688Z,8.40
2023-04-01T00:56:13.873Z,8.39
2023-04-01T00:58:45.920Z,8.35
2023-04-01T01:01:14.548Z,8.29
2023-04-01T01:03:42.819Z,8.28
2023-04-01T01:06:24.215Z,8.28
2023-04-01T01:09:10.288Z,8.25
2023-04-01T01:11:43.561Z,8.27
2023-04-01T01:14:21.551Z,8.29
2023-04-01T01:16:57.370Z,8.33
2023-04-01T01:19:44.944Z,8.29
2023-04-01T01:22:30.703Z,8.32
2023-04-01T01:25:09.017Z,8.26
2023-04-01T01:27:40.295Z,8.29
2023-04-01T01:30:21.650Z,8.26
2023-04-01T01:33:14.116Z,8.21
2023-04-01T01:35:46.551Z,8.21
2023-04-01T01:38:16.990Z,8.28
2023-04-01T01:40:48.063Z,8.23
2023-04-01T01:43:20.483Z,8.19
2023-04-01T01:45:50.668Z,8.25
2023-04-01T01:48:19.753Z,8.21
2023-04-01T01:50:50.338Z,8.20
2023-04-01T01:53:18.559Z,8.22
2023-04-01T01:55:47.661Z,8.22
2023-04-01T01:58:18.890Z,8.16
2023-04-01T02:00:50.658Z,8.25
2023-04-01T02:03:19.558Z,8.19
2023-04-01T02:05:49.365Z,8.21
2023-04-01T02:08:20.301Z,8.18
2023-04-01T02:10:51.823Z,8.21
2023-04-01T02:13:24.814Z,8.15
2023-04-01T02:15:56.492Z,8.21
2023-04-01T02:18:25.480Z,8.17
2023-04-01T02:20:56.472Z,8.16
2023-04-01T02:23:25.233Z,8.12
2023-04-01T02:25:53.501Z,8.08
2023-04-01T02:28:22.331Z,8.06
2023-04-01T02:30:51.813Z,8.06
2023-04-01T02:33:21.133Z,8.06
2023-04-01T02:35:49.557Z,8.06
2023-04-01T02:38:19.763Z,8.06
2023-04-01T02:40:49.393Z,8.02
2023-04-01T02:43:18.354Z,8.11
2023-04-01T02:45:46.804Z,8.11
2023-04-01T02:48:15.239Z,8.08
2023-04-01T02:50:43.754Z,8.12
2023-04-01T02:53:13.071Z,8.10
2023-04-01T02:55:42.715Z,8.11
2023-04-01T02:58:11.092Z,8.10
2023-04-01T03:00:41.681Z,8.08
2023-04-01T03:03:10.235Z,8.07
2023-04-01T03:05:38.627Z,8.07
2023-04-01T03:08:07.281Z,8.07
2023-04-01T03:10:35.629Z,8.09
2023-04-01T03:13:05.527Z,8.07
2023-04-01T03:15:33.961Z,8.07
2023-04-01T03:18:02.885Z,8.07
2023-04-01T03:20:31.822Z,8.09
2023-04-01T03:23:00.149Z,8.04
2023-04-01T03:25:29.556Z,8.06
2023-04-01T03:28:00.586Z,8.04
2023-04-01T03:30:46.351Z,8.05
2023-04-01T03:33:14.704Z,8.04
2023-04-01T03:35:42.927Z,8.05
2023-04-01T03:38:11.175Z,8.09
2023-04-01T03:40:39.566Z,8.07
2023-04-01T03:43:09.340Z,8.00
2023-04-01T03:45:37.827Z,8.01
2023-04-01T03:48:07.801Z,8.08
2023-04-01T03:50:36.338Z,8.06
2023-04-01T03:53:04.642Z,8.05
2023-04-01T03:55:33.150Z,8.01
2023-04-01T03:58:03.268Z,8.05
2023-04-01T04:00:31.963Z,8.03
2023-04-01T04:03:00.347Z,8.05
2023-04-01T04:05:30.058Z,8.08
2023-04-01T04:07:58.367Z,8.15
2023-04-01T04:10:26.803Z,8.20
2023-04-01T04:12:55.080Z,8.16
2023-04-01T04:15:23.720Z,8.06
2023-04-01T04:17:52.113Z,8.11
2023-04-01T04:20:20.545Z,8.06
2023-04-01T04:22:50.341Z,8.12
2023-04-01T04:25:19.039Z,8.11
2023-04-01T04:27:47.432Z,8.17
2023-04-01T04:30:15.933Z,8.12
2023-04-01T04:32:58.525Z,8.13
2023-04-01T04:35:26.932Z,8.19
2023-04-01T04:37:56.702Z,8.14
2023-04-01T04:40:24.968Z,8.09
2023-04-01T04:42:53.217Z,8.20
2023-04-01T04:45:21.743Z,8.16
2023-04-01T04:47:50.119Z,8.19
2023-04-01T04:50:18.889Z,8.15
2023-04-01T04:52:47.185Z,8.12
2023-04-01T04:55:16.918Z,8.13
2023-04-01T04:57:45.264Z,8.14
2023-04-01T05:00:13.937Z,8.18
2023-04-01T05:02:42.261Z,8.18
2023-04-01T05:05:11.440Z,8.11
2023-04-01T05:07:39.766Z,8.22
2023-04-01T05:10:08.387Z,8.13
2023-04-01T05:12:39.829Z,8.14
2023-04-01T05:15:08.845Z,8.14
2023-04-01T05:17:37.106Z,8.12
2023-04-01T05:20:06.004Z,8.21
2023-04-01T05:22:34.569Z,8.17
2023-04-01T05:25:03.060Z,8.13
2023-04-01T05:27:33.525Z,8.18
2023-04-01T05:30:03.623Z,8.16
2023-04-01T05:32:33.595Z,8.19
2023-04-01T05:35:01.877Z,8.15
2023-04-01T05:37:30.168Z,8.14
2023-04-01T05:39:59.641Z,8.20
2023-04-01T05:42:28.170Z,8.18
2023-04-01T05:44:57.065Z,8.16
2023-04-01T05:47:26.734Z,8.25
2023-04-01T05:49:56.404Z,8.25
2023-04-01T05:52:24.789Z,8.21
2023-04-01T05:54:53.053Z,8.16
2023-04-01T05:57:21.969Z,8.20
2023-04-01T05:59:50.241Z,8.24
2023-04-01T06:02:19.510Z,8.24
2023-04-01T06:04:56.113Z,8.26
2023-04-01T06:07:24.904Z,8.26
2023-04-01T06:09:53.123Z,8.24
2023-04-01T06:12:29.242Z,8.21
2023-04-01T06:15:04.807Z,8.24
2023-04-01T06:17:44.322Z,8.26
2023-04-01T06:20:21.825Z,8.26
2023-04-01T06:23:16.457Z,8.34
2023-04-01T06:25:59.653Z,8.36
2023-04-01T06:28:38.390Z,8.29
2023-04-01T06:31:12.279Z,8.23
2023-04-01T06:33:48.745Z,8.29
2023-04-01T06:36:41.153Z,8.33
2023-04-01T06:39:17.837Z,8.32
2023-04-01T06:42:12.395Z,8.28
2023-04-01T06:44:56.540Z,8.30
2023-04-01T06:47:30.236Z,8.27
2023-04-01T06:50:01.159Z,8.32
2023-04-01T06:52:36.735Z,8.24
2023-04-01T06:55:16.157Z,8.35
2023-04-01T06:57:46.980Z,8.33
2023-04-01T07:00:17.684Z,8.25
2023-04-01T07:02:54.638Z,8.35
2023-04-01T07:05:25.011Z,8.29
2023-04-01T07:07:56.851Z,8.28
2023-04-01T07:10:28.955Z,8.33
2023-04-01T07:12:59.776Z,8.30
2023-04-01T07:15:31.014Z,8.29
2023-04-01T07:18:03.872Z,8.33
2023-04-01T07:20:33.705Z,8.25
2023-04-01T07:23:05.308Z,8.28
2023-04-01T07:25:36.126Z,8.32
2023-04-01T07:28:07.376Z,8.34
2023-04-01T07:30:37.977Z,8.42
2023-04-01T07:33:09.860Z,8.43
2023-04-01T07:35:41.584Z,8.41
2023-04-01T07:38:17.005Z,8.44
2023-04-01T07:40:50.161Z,8.51
2023-04-01T07:43:31.739Z,8.48
2023-04-01T07:46:03.260Z,8.43
2023-04-01T07:48:35.826Z,8.56
2023-04-01T07:51:05.846Z,8.61
2023-04-01T07:53:38.403Z,8.72
2023-04-01T07:56:09.393Z,8.67
2023-04-01T07:58:44.894Z,8.66
2023-04-01T08:01:16.434Z,8.70
2023-04-01T08:03:53.387Z,8.52
2023-04-01T08:06:25.421Z,8.65
2023-04-01T08:09:01.644Z,8.65
2023-04-01T08:11:36.367Z,8.65
2023-04-01T08:14:11.091Z,8.66
2023-04-01T08:16:44.312Z,8.65
2023-04-01T08:19:20.742Z,8.59
2023-04-01T08:21:51.810Z,8.61
2023-04-01T08:24:24.765Z,8.62
2023-04-01T08:26:57.279Z,8.67
2023-04-01T08:29:28.131Z,8.68
2023-04-01T08:32:00.259Z,8.65
2023-04-01T08:34:30.286Z,8.76
2023-04-01T08:37:02.021Z,8.78
2023-04-01T08:39:34.687Z,8.70
2023-04-01T08:42:19.075Z,8.85
2023-04-01T08:45:14.260Z,8.89
2023-04-01T08:47:54.739Z,8.94
2023-04-01T08:50:34.477Z,8.92
2023-04-01T08:53:07.550Z,8.97
2023-04-01T08:55:44.059Z,8.96
2023-04-01T08:58:26.511Z,8.99
2023-04-01T09:00:56.252Z,8.95
2023-04-01T09:03:33.696Z,8.94
2023-04-01T09:06:21.055Z,8.94
2023-04-01T09:08:55.006Z,8.88
2023-04-01T09:11:34.817Z,8.87
2023-04-01T09:14:12.226Z,8.94
2023-04-01T09:17:11.318Z,9.00
2023-04-01T09:19:46.410Z,9.00
2023-04-01T09:22:27.102Z,8.90
2023-04-01T09:25:10.553Z,8.95
2023-04-01T09:27:45.836Z,8.92
2023-04-01T09:30:41.212Z,8.90
2023-04-01T09:33:27.311Z,9.03
2023-04-01T09:36:05.025Z,9.05
2023-04-01T09:38:40.521Z,9.08
2023-04-01T09:41:14.128Z,9.13
2023-04-01T09:43:56.496Z,9.24
2023-04-01T09:46:33.800Z,9.07
2023-04-01T09:49:13.008Z,9.18
2023-04-01T09:51:44.513Z,9.25
2023-04-01T09:54:20.221Z,9.24
2023-04-01T09:57:10.294Z,9.32
2023-04-01T09:59:56.365Z,9.36
2023-04-01T10:02:45.047Z,9.39
2023-04-01T10:05:30.804Z,9.38
2023-04-01T10:08:14.086Z,9.42
2023-04-01T10:11:01.087Z,9.46
2023-04-01T10:14:04.368Z,9.44
2023-04-01T10:16:56.831Z,9.54
2023-04-01T10:19:40.100Z,9.45
2023-04-01T10:22:37.869Z,9.36
2023-04-01T10:25:31.073Z,9.40
2023-04-01T10:28:16.555Z,9.42
2023-04-01T10:31:01.378Z,9.48
2023-04-01T10:33:40.255Z,9.53
2023-04-01T10:36:26.830Z,9.56
2023-04-01T10:39:06.663Z,9.61
2023-04-01T10:42:02.306Z,9.61
2023-04-01T10:44:54.038Z,9.49
2023-04-01T10:47:39.906Z,9.58
2023-04-01T10:50:25.986Z,9.83
2023-04-01T10:53:13.523Z,9.76
2023-04-01T10:56:00.619Z,9.75
2023-04-01T10:58:40.208Z,9.78
2023-04-01T11:01:24.505Z,9.89
2023-04-01T11:04:23.326Z,9.89
2023-04-01T11:07:12.857Z,9.94
2023-04-01T11:10:05.636Z,9.75
2023-04-01T11:12:58.070Z,9.82
2023-04-01T11:15:44.320Z,10.05
2023-04-01T11:18:30.684Z,10.08
2023-04-01T11:21:17.064Z,10.02
2023-04-01T11:24:05.745Z,10.02
2023-04-01T11:26:37.818Z,10.02
2023-04-01T11:29:28.154Z,9.89
2023-04-01T11:32:01.978Z,9.85
2023-04-01T11:34:51.036Z,9.90
2023-04-01T11:37:29.814Z,9.87
2023-04-01T11:40:08.496Z,9.74
2023-04-01T11:42:42.447Z,9.79
2023-04-01T11:45:17.588Z,9.79
2023-04-01T11:48:11.296Z,9.84
2023-04-01T11:50:49.074Z,9.83
2023-04-01T11:53:32.436Z,9.86
2023-04-01T11:56:09.109Z,9.83
2023-04-01T11:58:56.050Z,9.98
2023-04-01T12:01:34.119Z,10.06
2023-04-01T12:04:08.433Z,9.95
2023-04-01T12:06:39.827Z,9.90
2023-04-01T12:09:14.401Z,9.82
2023-04-01T12:11:47.721Z,9.63
2023-04-01T12:14:20.272Z,9.48
2023-04-01T12:17:00.535Z,9.47
2023-04-01T12:19:34.276Z,9.52
2023-04-01T12:22:12.472Z,9.64
2023-04-01T12:25:01.442Z,9.58
2023-04-01T12:27:41.821Z,9.66
2023-04-01T12:30:41.204Z,9.75
2023-04-01T12:33:27.832Z,9.87
2023-04-01T12:36:00.719Z,9.92
2023-04-01T12:38:34.397Z,9.95
2023-04-01T12:41:11.852Z,10.07
2023-04-01T12:44:07.769Z,10.01
2023-04-01T12:46:44.037Z,10.09
2023-04-01T12:49:28.509Z,10.11
2023-04-01T12:52:03.313Z,10.24
2023-04-01T12:55:05.306Z,10.44
2023-04-01T12:57:43.654Z,10.42
2023-04-01T13:00:26.238Z,10.52
2023-04-01T13:03:04.959Z,10.41
2023-04-01T13:05:40.297Z,10.32
2023-04-01T13:08:18.838Z,10.29
2023-04-01T13:10:55.793Z,10.19
2023-04-01T13:13:34.424Z,10.12
2023-04-01T13:16:08.680Z,10.10
2023-04-01T13:18:43.922Z,9.99
2023-04-01T13:21:18.070Z,9.93
2023-04-01T13:23:53.982Z,10.05
2023-04-01T13:26:29.610Z,10.12
2023-04-01T13:29:01.089Z,10.11
2023-04-01T13:31:36.166Z,10.13
2023-04-01T13:34:17.113Z,10.03
2023-04-01T13:36:52.291Z,10.00
2023-04-01T13:39:26.947Z,9.92
2023-04-01T13:42:09.536Z,9.88
2023-04-01T13:44:41.355Z,9.84
2023-04-01T13:47:19.465Z,9.79
2023-04-01T13:49:59.854Z,9.75
2023-04-01T13:52:36.314Z,9.73
2023-04-01T13:55:29.186Z,9.83
2023-04-01T13:58:09.958Z,9.68
2023-04-01T14:00:44.844Z,9.66
2023-04-01T14:03:32.177Z,9.62
2023-04-01T14:06:13.696Z,9.67
2023-04-01T14:08:49.410Z,9.59
2023-04-01T14:11:20.618Z,9.54
2023-04-01T14:13:55.302Z,9.50
2023-04-01T14:16:38.550Z,9.58
2023-04-01T14:19:13.991Z,9.52
2023-04-01T14:21:49.173Z,9.53
2023-04-01T14:24:30.300Z,9.54
2023-04-01T14:27:15.396Z,9.65
2023-04-01T14:29:50.623Z,9.66
2023-04-01T14:32:27.402Z,9.71
2023-04-01T14:35:01.800Z,9.78
2023-04-01T14:37:59.785Z,9.91
2023-04-01T14:40:51.782Z,10.00
2023-04-01T14:43:30.363Z,10.10
2023-04-01T14:46:09.246Z,10.11
2023-04-01T14:48:39.953Z,10.10
2023-04-01T14:51:14.691Z,10.13
2023-04-01T14:53:46.929Z,10.15
2023-04-01T14:56:35.306Z,10.10
2023-04-01T14:59:03.879Z,10.09
2023-04-01T15:01:43.247Z,10.20
2023-04-01T15:04:31.361Z,10.30
2023-04-01T15:07:05.767Z,10.23
2023-04-01T15:09:41.969Z,10.23
2023-04-01T15:12:18.482Z,10.08
2023-04-01T15:14:53.376Z,10.03
2023-04-01T15:17:47.285Z,9.87
2023-04-01T15:20:26.666Z,9.84
2023-04-01T15:23:02.529Z,9.84
2023-04-01T15:25:41.505Z,9.79
2023-04-01T15:28:16.465Z,9.74
2023-04-01T15:30:52.093Z,9.78
2023-04-01T15:33:35.804Z,9.78
2023-04-01T15:36:08.041Z,9.86
2023-04-01T15:38:39.083Z,9.84
2023-04-01T15:41:16.117Z,9.78
2023-04-01T15:43:45.302Z,9.79
2023-04-01T15:46:22.928Z,9.83
2023-04-01T15:48:59.380Z,9.83
2023-04-01T15:51:38.422Z,9.83
2023-04-01T15:57:03.298Z,9.74
2023-04-01T15:59:55.785Z,9.70
2023-04-01T16:02:32.143Z,9.62
2023-04-01T16:05:02.241Z,9.62
2023-04-01T16:07:45.008Z,9.60
2023-04-01T16:10:21.148Z,9.59
2023-04-01T16:13:04.339Z,9.54
2023-04-01T16:15:40.824Z,9.55
2023-04-01T16:18:25.783Z,9.54
2023-04-01T16:20:56.712Z,9.50
2023-04-01T16:23:27.967Z,9.44
2023-04-01T16:26:03.525Z,9.39
2023-04-01T16:28:35.480Z,9.37
2023-04-01T16:31:07.989Z,9.42
2023-04-01T16:33:47.398Z,9.56
2023-04-01T16:36:24.926Z,9.61
2023-04-01T16:38:57.873Z,9.62
2023-04-01T16:41:28.049Z,9.60
2023-04-01T16:44:01.574Z,9.58
2023-04-01T16:46:33.510Z,9.57
2023-04-01T16:49:10.662Z,9.58
2023-04-01T16:51:42.727Z,9.57
2023-04-01T16:54:15.471Z,9.58
2023-04-01T16:56:46.757Z,9.60
2023-04-01T16:59:28.750Z,9.59
2023-04-01T17:01:59.508Z,9.61
2023-04-01T17:04:34.222Z,9.54
2023-04-01T17:07:08.252Z,9.48
2023-04-01T17:09:43.494Z,9.48
2023-04-01T17:12:15.730Z,9.47
2023-04-01T17:14:52.388Z,9.54
2023-04-01T17:17:26.390Z,9.56
2023-04-01T17:19:59.736Z,9.58
2023-04-01T17:22:31.459Z,9.55
2023-04-01T17:25:06.488Z,9.57
2023-04-01T17:27:40.467Z,9.55
2023-04-01T17:30:18.561Z,9.52
2023-04-01T17:32:57.229Z,9.48
2023-04-01T17:35:29.004Z,9.48
2023-04-01T17:38:06.236Z,9.44
2023-04-01T17:40:41.066Z,9.45
2023-04-01T17:43:14.567Z,9.50
2023-04-01T17:45:49.650Z,9.48
2023-04-01T17:48:23.390Z,9.51
2023-04-01T17:51:04.628Z,9.52
2023-04-01T17:53:38.510Z,9.48
2023-04-01T17:56:11.997Z,9.48
2023-04-01T17:58:46.192Z,9.47
2023-04-01T18:01:19.855Z,9.49
2023-04-01T18:04:06.441Z,9.48
2023-04-01T18:06:41.095Z,9.59
2023-04-01T18:09:17.401Z,9.55
2023-04-01T18:11:53.849Z,9.60
2023-04-01T18:14:32.646Z,9.57
2023-04-01T18:17:13.535Z,9.59
2023-04-01T18:19:46.376Z,9.58
2023-04-01T18:22:19.690Z,9.58
2023-04-01T18:24:51.679Z,9.54
2023-04-01T18:27:24.278Z,9.55
2023-04-01T18:30:03.385Z,9.53
2023-04-01T18:32:37.830Z,9.50
2023-04-01T18:35:19.544Z,9.54
2023-04-01T18:37:56.074Z,9.48
2023-04-01T18:40:27.486Z,9.48
2023-04-01T18:43:00.885Z,9.39
2023-04-01T18:45:30.968Z,9.48
2023-04-01T18:48:07.066Z,9.39
2023-04-01T18:50:40.987Z,9.37
2023-04-01T18:53:18.268Z,9.30
2023-04-01T18:55:52.603Z,9.32
2023-04-01T18:58:24.977Z,9.34
2023-04-01T19:01:02.770Z,9.24
2023-04-01T19:03:39.403Z,9.13
2023-04-01T19:06:31.133Z,9.04
2023-04-01T19:09:11.896Z,9.03
2023-04-01T19:11:50.743Z,8.98
2023-04-01T19:14:27.241Z,8.83
2023-04-01T19:17:03.182Z,8.79
2023-04-01T19:19:44.118Z,8.82
2023-04-01T19:22:21.481Z,8.85
2023-04-01T19:25:01.838Z,8.86
2023-04-01T19:27:34.188Z,8.74
2023-04-01T19:30:17.630Z,8.74
2023-04-01T19:32:51.577Z,8.67
2023-04-01T19:35:27.268Z,8.63
2023-04-01T19:37:59.720Z,8.64
2023-04-01T19:40:44.002Z,8.60
2023-04-01T19:43:23.655Z,8.43
2023-04-01T19:45:57.571Z,8.46
2023-04-01T19:48:39.404Z,8.40
2023-04-01T19:51:11.593Z,8.44
2023-04-01T19:53:43.248Z,8.46
2023-04-01T19:56:17.949Z,8.40
2023-04-01T19:59:02.364Z,8.29
2023-04-01T20:01:44.869Z,8.27
2023-04-01T20:04:16.122Z,8.24
2023-04-01T20:06:50.642Z,8.13
2023-04-01T20:09:37.420Z,8.09
2023-04-01T20:12:12.466Z,8.16
2023-04-01T20:14:45.678Z,8.09
2023-04-01T20:17:20.128Z,8.04
2023-04-01T20:19:55.699Z,7.97
2023-04-01T20:22:56.578Z,7.89
2023-04-01T20:25:28.331Z,7.94
2023-04-01T20:27:57.949Z,7.91
2023-04-01T20:30:36.964Z,7.87
2023-04-01T20:33:12.899Z,7.80
2023-04-01T20:35:46.221Z,7.73
2023-04-01T20:38:32.947Z,7.69
2023-04-01T20:41:08.611Z,7.64
2023-04-01T20:43:50.458Z,7.67
2023-04-01T20:46:21.439Z,7.54
2023-04-01T20:49:01.854Z,7.55
2023-04-01T20:51:39.913Z,7.48
2023-04-01T20:54:19.230Z,7.43
2023-04-01T20:56:55.114Z,7.27
2023-04-01T20:59:32.408Z,7.24
2023-04-01T21:02:07.644Z,7.10
2023-04-01T21:05:12.794Z,7.22
2023-04-01T21:07:44.317Z,7.16
2023-04-01T21:10:26.790Z,7.08
2023-04-01T21:12:58.504Z,7.16
2023-04-01T21:15:35.770Z,7.05
2023-04-01T21:18:12.312Z,7.02
2023-04-01T21:20:48.390Z,6.97
2023-04-01T21:23:23.925Z,6.86
2023-04-01T21:26:08.610Z,6.82
2023-04-01T21:28:39.686Z,6.84
2023-04-01T21:31:15.441Z,6.90
2023-04-01T21:33:59.509Z,7.00
2023-04-01T21:36:38.215Z,6.95
2023-04-01T21:39:15.597Z,6.85
2023-04-01T21:42:03.515Z,6.81
2023-04-01T21:45:00.324Z,6.70
2023-04-01T21:47:43.933Z,6.64
2023-04-01T21:50:35.372Z,6.55
2023-04-01T21:53:20.229Z,6.56
2023-04-01T21:56:13.873Z,6.55
2023-04-01T21:59:06.674Z,6.49
2023-04-01T22:01:43.041Z,6.55
2023-04-01T22:04:26.143Z,6.57
2023-04-01T22:06:57.963Z,6.52
2023-04-01T22:09:30.554Z,6.56
2023-04-01T22:12:04.459Z,6.41
2023-04-01T22:14:50.098Z,6.38
2023-04-01T22:17:21.143Z,6.32
2023-04-01T22:19:54.222Z,6.22
2023-04-01T22:22:26.409Z,6.21
2023-04-01T22:25:02.696Z,6.08
2023-04-01T22:27:33.877Z,6.12
2023-04-01T22:30:09.969Z,6.02
2023-04-01T22:32:42.383Z,6.04
2023-04-01T22:35:14.491Z,5.88
2023-04-01T22:37:48.291Z,5.87
2023-04-01T22:40:23.596Z,5.83
2023-04-01T22:46:04.115Z,5.89
2023-04-01T22:48:39.442Z,5.92
2023-04-01T22:51:14.615Z,5.85
2023-04-01T22:53:52.534Z,5.79
2023-04-01T22:56:24.314Z,5.83
2023-04-01T22:58:57.054Z,5.78
2023-04-01T23:01:26.942Z,5.77
2023-04-01T23:03:58.537Z,5.72
2023-04-01T23:06:29.306Z,5.68
2023-04-01T23:09:03.446Z,5.75
2023-04-01T23:12:04.772Z,5.81
2023-04-01T23:14:38.968Z,5.84
2023-04-01T23:17:14.894Z,5.76
2023-04-01T23:19:49.340Z,5.75
2023-04-01T23:22:21.706Z,5.70
2023-04-01T23:24:56.383Z,5.44
2023-04-01T23:27:30.272Z,5.32
2023-04-01T23:29:58.549Z,5.35
2023-04-01T23:32:27.743Z,5.45
2023-04-01T23:34:58.855Z,5.31
2023-04-01T23:37:28.114Z,5.35
2023-04-01T23:39:57.830Z,5.36
2023-04-01T23:42:27.967Z,5.48
2023-04-01T23:44:58.012Z,5.47
2023-04-01T23:47:28.341Z,5.60
2023-04-01T23:49:59.090Z,5.47
2023-04-01T23:52:29.121Z,5.34
2023-04-01T23:55:00.630Z,5.32
2023-04-01T23:57:31.371Z,5.21
